Time;durP1;ratioP1;P1;durP2;ratioP2;P2;SDS_P1;SDS_P2;PMS_P1;PMS_P2;Temp;Humidity;BMP_temperature;BMP_pressure;BME280_temperature;BME280_humidity;BME280_pressure;Samples;Min_cycle;Max_cycle;Signal;HPM_P1;HPM_P2
2022/11/26 00:00:14;;;;;;;46.57;24.20;;;2.40;1.00;;;;;;10399246;28;20504;-80
2022/11/26 00:05:36;;;;;;;40.17;22.73;;;2.40;1.00;;;;;;10386652;28;20197;-81
2022/11/26 00:10:57;;;;;;;44.23;24.40;;;2.40;1.00;;;;;;10400621;28;20197;-86
2022/11/26 00:16:18;;;;;;;42.50;24.10;;;2.40;1.00;;;;;;10399535;28;20310;-91
2022/11/26 00:21:41;;;;;;;40.67;22.07;;;2.40;1.00;;;;;;10401948;28;20208;-92
2022/11/26 00:27:02;;;;;;;41.43;22.10;;;2.50;1.00;;;;;;10385399;28;20205;-80
2022/11/26 00:32:25;;;;;;;45.27;23.40;;;2.40;1.00;;;;;;10385641;28;20198;-82
2022/11/26 00:37:54;;;;;;;34.83;19.17;;;2.40;1.00;;;;;;10392078;28;20233;-78
2022/11/26 00:43:17;;;;;;;33.00;18.30;;;2.40;1.00;;;;;;10374962;28;20194;-80
2022/11/26 00:48:38;;;;;;;30.17;17.40;;;2.30;1.00;;;;;;10384540;28;20492;-86
2022/11/26 00:54:02;;;;;;;32.80;18.23;;;2.30;1.00;;;;;;10393492;28;20197;-85
2022/11/26 00:59:23;;;;;;;32.40;18.23;;;2.30;1.00;;;;;;10400996;28;20225;-80
2022/11/26 01:04:44;;;;;;;32.53;18.97;;;2.30;1.00;;;;;;10402658;28;20197;-78
2022/11/26 01:10:14;;;;;;;34.60;20.37;;;2.20;1.00;;;;;;10414884;28;20232;-81
2022/11/26 01:15:35;;;;;;;32.77;19.00;;;2.20;1.00;;;;;;10384449;28;20237;-89
2022/11/26 01:20:56;;;;;;;32.33;18.50;;;2.20;1.00;;;;;;10383504;28;20196;-80
2022/11/26 01:26:21;;;;;;;29.37;17.50;;;2.20;1.00;;;;;;10383252;28;20211;-79
2022/11/26 01:31:43;;;;;;;28.33;17.50;;;2.10;1.00;;;;;;10402793;28;20488;-79
2022/11/26 01:37:11;;;;;;;30.67;17.13;;;2.20;1.00;;;;;;10401058;28;20299;-78
2022/11/26 01:42:45;;;;;;;29.70;16.80;;;2.20;1.00;;;;;;10366950;28;20193;-85
2022/11/26 01:48:21;;;;;;;32.30;17.37;;;2.20;1.00;;;;;;10396643;28;20219;-90
2022/11/26 01:53:53;;;;;;;32.03;16.87;;;2.10;1.00;;;;;;10396048;28;20200;-80
2022/11/26 01:59:31;;;;;;;32.17;18.57;;;2.10;1.00;;;;;;10382374;28;20229;-80
2022/11/26 02:05:06;;;;;;;29.77;17.33;;;2.10;1.00;;;;;;10397107;28;20195;-79
2022/11/26 02:10:27;;;;;;;30.93;17.23;;;2.00;1.00;;;;;;10395746;28;20205;-91
2022/11/26 02:16:02;;;;;;;32.20;17.60;;;1.90;1.00;;;;;;10395569;28;20244;-86
2022/11/26 02:21:27;;;;;;;32.40;17.87;;;1.90;1.00;;;;;;10396340;28;20196;-89
2022/11/26 02:26:59;;;;;;;31.03;17.70;;;1.90;1.00;;;;;;10381871;28;20247;-80
2022/11/26 02:32:27;;;;;;;31.10;17.60;;;1.90;1.00;;;;;;10396179;28;20269;-84
2022/11/26 02:37:55;;;;;;;32.60;18.37;;;1.80;1.00;;;;;;10384437;28;20228;-78
2022/11/26 02:43:17;;;;;;;35.03;20.33;;;1.70;1.00;;;;;;10372145;28;20197;-82
2022/11/26 02:48:41;;;;;;;37.90;21.67;;;1.60;1.00;;;;;;10394876;28;20466;-91
2022/11/26 02:54:05;;;;;;;36.57;22.07;;;1.60;1.00;;;;;;10380601;28;20579;-79
2022/11/26 02:59:27;;;;;;;40.20;21.73;;;1.60;1.00;;;;;;10394888;28;20231;-80
2022/11/26 03:04:52;;;;;;;37.57;21.57;;;1.60;1.00;;;;;;10380425;28;20263;-79
2022/11/26 03:10:14;;;;;;;37.87;21.40;;;1.60;1.00;;;;;;10394183;28;20205;-79
2022/11/26 03:15:35;;;;;;;36.10;21.03;;;1.50;1.00;;;;;;10393954;28;20442;-78
2022/11/26 03:20:56;;;;;;;37.17;20.97;;;1.50;1.00;;;;;;10395063;28;20189;-80
2022/11/26 03:26:17;;;;;;;40.37;22.43;;;1.40;1.00;;;;;;10394189;28;20208;-83
2022/11/26 03:31:38;;;;;;;44.73;25.13;;;1.40;1.00;;;;;;10394303;28;20391;-79
2022/11/26 03:36:59;;;;;;;54.13;26.93;;;1.30;1.00;;;;;;10381725;28;20236;-83
2022/11/26 03:42:20;;;;;;;49.93;25.27;;;1.40;1.00;;;;;;10372049;28;20387;-83
2022/11/26 03:47:41;;;;;;;48.17;24.43;;;1.30;1.00;;;;;;10401041;28;20193;-79
2022/11/26 03:53:02;;;;;;;37.33;22.73;;;1.30;1.00;;;;;;10401051;28;20267;-81
2022/11/26 03:58:23;;;;;;;32.90;18.47;;;1.30;1.00;;;;;;10386537;28;20229;-87
2022/11/26 04:03:45;;;;;;;35.13;19.63;;;1.30;1.00;;;;;;10400325;28;20418;-79
2022/11/26 04:09:06;;;;;;;33.20;18.10;;;1.20;1.00;;;;;;10386377;28;20208;-79
2022/11/26 04:14:27;;;;;;;31.43;17.70;;;1.10;1.00;;;;;;10400000;28;20232;-80
2022/11/26 04:19:48;;;;;;;36.20;20.90;;;1.10;1.00;;;;;;10385460;28;20553;-91
2022/11/26 04:25:09;;;;;;;37.43;20.53;;;1.00;1.00;;;;;;10402437;28;20192;-79
2022/11/26 04:30:31;;;;;;;34.17;21.07;;;0.90;1.00;;;;;;10400407;28;20515;-90
2022/11/26 04:35:52;;;;;;;35.33;21.07;;;0.90;1.00;;;;;;10399346;28;20306;-79
2022/11/26 04:41:13;;;;;;;41.00;23.17;;;0.90;1.00;;;;;;10398467;28;20204;-78
2022/11/26 04:46:34;;;;;;;45.67;26.37;;;0.90;1.00;;;;;;10399403;28;20205;-78
2022/11/26 04:51:55;;;;;;;46.93;25.90;;;1.00;1.00;;;;;;10384845;28;20199;-79
2022/11/26 04:57:16;;;;;;;45.60;25.03;;;1.20;1.00;;;;;;10398318;28;20298;-87
2022/11/26 05:02:37;;;;;;;38.77;21.67;;;1.30;1.00;;;;;;10398702;28;20214;-80
2022/11/26 05:07:58;;;;;;;35.87;19.33;;;1.40;1.00;;;;;;10398760;28;20201;-79
2022/11/26 05:13:19;;;;;;;33.90;18.30;;;1.40;1.00;;;;;;10398380;28;20237;-79
2022/11/26 05:18:40;;;;;;;35.00;18.87;;;1.60;1.00;;;;;;10397249;28;20250;-79
2022/11/26 05:24:02;;;;;;;34.60;18.93;;;1.50;1.00;;;;;;10369605;28;20201;-91
2022/11/26 05:29:23;;;;;;;33.23;17.63;;;1.50;1.00;;;;;;10397795;28;20559;-82
2022/11/26 05:34:44;;;;;;;32.47;17.53;;;1.60;1.00;;;;;;10396643;28;20205;-90
2022/11/26 05:40:07;;;;;;;33.50;19.10;;;1.60;1.00;;;;;;10357237;28;20253;-83
2022/11/26 05:45:28;;;;;;;34.17;19.60;;;1.60;1.00;;;;;;10390654;28;20200;-80
2022/11/26 05:50:57;;;;;;;34.77;18.33;;;1.60;1.00;;;;;;10382856;28;20209;-91
2022/11/26 05:56:18;;;;;;;34.60;18.00;;;1.60;1.00;;;;;;10391968;28;20271;-78
2022/11/26 06:01:39;;;;;;;32.87;18.57;;;1.60;1.00;;;;;;10414174;28;20229;-88
2022/11/26 06:07:00;;;;;;;31.50;18.30;;;1.60;1.00;;;;;;10395581;28;20205;-86
2022/11/26 06:12:21;;;;;;;34.43;19.10;;;1.60;1.00;;;;;;10395426;28;20241;-80
2022/11/26 06:17:43;;;;;;;69.03;28.93;;;1.60;1.00;;;;;;10395438;28;20306;-89
2022/11/26 06:23:04;;;;;;;62.37;30.57;;;1.60;1.00;;;;;;10381781;28;20220;-82
2022/11/26 06:28:25;;;;;;;63.30;31.50;;;1.60;1.00;;;;;;10396341;28;20220;-80
2022/11/26 06:33:46;;;;;;;67.27;33.47;;;1.60;1.00;;;;;;10382082;28;20197;-85
2022/11/26 06:39:09;;;;;;;60.10;28.87;;;1.60;1.00;;;;;;10364688;28;20249;-85
2022/11/26 06:44:30;;;;;;;58.37;29.03;;;1.60;1.00;;;;;;10382892;28;20186;-85
2022/11/26 06:49:51;;;;;;;54.80;30.93;;;1.70;1.00;;;;;;10394852;28;20251;-80
2022/11/26 06:55:12;;;;;;;55.40;30.63;;;1.70;1.00;;;;;;10397624;28;20199;-80
2022/11/26 07:00:33;;;;;;;50.03;27.43;;;1.70;1.00;;;;;;10392461;28;20203;-79
2022/11/26 07:05:54;;;;;;;50.80;26.77;;;1.80;1.00;;;;;;10380919;28;20244;-87
2022/11/26 07:11:16;;;;;;;42.00;22.03;;;1.90;1.00;;;;;;10395964;28;20462;-85
2022/11/26 07:16:38;;;;;;;37.13;20.13;;;1.90;1.00;;;;;;10388620;28;20223;-80
2022/11/26 07:21:59;;;;;;;34.17;20.23;;;1.90;1.00;;;;;;10401595;28;20274;-79
2022/11/26 07:27:20;;;;;;;33.60;18.80;;;2.00;1.00;;;;;;10387330;28;20221;-87
2022/11/26 07:32:41;;;;;;;33.70;18.40;;;2.00;1.00;;;;;;10387560;28;20500;-79
2022/11/26 07:38:09;;;;;;;32.83;18.93;;;2.10;1.00;;;;;;10377972;28;20222;-80
2022/11/26 07:43:30;;;;;;;34.67;19.30;;;2.10;1.00;;;;;;10378804;28;20200;-79
2022/11/26 07:48:51;;;;;;;42.97;20.00;;;2.20;1.00;;;;;;10400697;28;20201;-81
2022/11/26 07:54:12;;;;;;;43.30;23.00;;;2.10;1.00;;;;;;10406814;28;20201;-78
2022/11/26 07:59:33;;;;;;;50.20;22.60;;;2.20;1.00;;;;;;10386838;28;20226;-91
2022/11/26 08:04:55;;;;;;;42.93;20.67;;;2.10;1.00;;;;;;10386546;28;20206;-79
2022/11/26 08:10:16;;;;;;;37.47;21.50;;;2.30;1.00;;;;;;10386179;28;20239;-78
2022/11/26 08:15:37;;;;;;;37.13;20.77;;;2.30;1.00;;;;;;10385748;28;20553;-79
2022/11/26 08:20:59;;;;;;;40.87;20.93;;;2.30;1.00;;;;;;10400070;28;20204;-90
2022/11/26 08:26:21;;;;;;;37.50;20.23;;;2.30;1.00;;;;;;10400314;28;20471;-78
2022/11/26 08:31:46;;;;;;;36.87;19.73;;;2.30;1.00;;;;;;10399541;28;20236;-87
2022/11/26 08:37:08;;;;;;;35.67;20.77;;;2.40;1.00;;;;;;10398021;28;20259;-86
2022/11/26 08:42:29;;;;;;;33.50;18.93;;;2.40;1.00;;;;;;10371411;28;20236;-81
2022/11/26 08:47:51;;;;;;;32.70;19.47;;;2.50;1.00;;;;;;10399052;28;20397;-81
2022/11/26 08:53:12;;;;;;;37.67;20.77;;;2.60;1.00;;;;;;10384238;28;20208;-93
2022/11/26 08:58:36;;;;;;;38.47;19.10;;;2.60;1.00;;;;;;10385198;28;20236;-86
2022/11/26 09:03:59;;;;;;;39.77;20.33;;;2.60;1.00;;;;;;10386350;28;20447;-91
2022/11/26 09:09:21;;;;;;;39.73;22.23;;;2.70;1.00;;;;;;10370745;28;20278;-87
2022/11/26 09:14:42;;;;;;;35.73;19.53;;;2.80;1.00;;;;;;10397673;28;20233;-95
2022/11/26 09:20:04;;;;;;;43.10;22.70;;;2.80;1.00;;;;;;10383519;28;20228;-93
2022/11/26 09:25:25;;;;;;;44.60;23.80;;;2.90;1.00;;;;;;10386015;28;20229;-90
2022/11/26 09:30:46;;;;;;;39.30;21.87;;;2.70;1.00;;;;;;10341147;28;20252;-88
2022/11/26 09:36:10;;;;;;;40.70;21.10;;;2.80;1.00;;;;;;10376404;28;20220;-83
2022/11/26 09:41:52;;;;;;;39.67;22.03;;;2.80;1.00;;;;;;10366128;28;20524;-85
2022/11/26 09:47:19;;;;;;;37.00;21.23;;;2.90;1.00;;;;;;10395301;28;20184;-91
2022/11/26 09:52:46;;;;;;;49.93;25.07;;;2.90;1.00;;;;;;10380666;28;20205;-90
2022/11/26 09:58:31;;;;;;;75.90;40.67;;;3.00;1.00;;;;;;10394534;28;20293;-85
2022/11/26 10:03:53;;;;;;;59.90;33.47;;;3.00;1.00;;;;;;10380578;28;20189;-92
2022/11/26 10:09:37;;;;;;;45.13;26.00;;;3.00;1.00;;;;;;10380603;28;20273;-87
2022/11/26 10:15:17;;;;;;;36.10;21.37;;;3.10;1.00;;;;;;10381948;28;20261;-84
2022/11/26 10:21:17;;;;;;;35.00;20.07;;;3.10;1.00;;;;;;10379707;28;20293;-89
2022/11/26 10:26:47;;;;;;;37.00;20.10;;;3.20;1.00;;;;;;10402484;28;20279;-92
2022/11/26 10:32:17;;;;;;;38.07;21.80;;;3.30;1.00;;;;;;10418827;28;20197;-91
2022/11/26 10:37:38;;;;;;;30.17;18.07;;;3.30;1.00;;;;;;10398978;28;20237;-90
2022/11/26 10:43:21;;;;;;;39.97;21.87;;;3.30;1.00;;;;;;10432645;28;20467;-88
2022/11/26 10:48:42;;;;;;;46.57;24.73;;;3.30;1.00;;;;;;10423051;28;20207;-80
2022/11/26 10:54:04;;;;;;;51.43;26.90;;;3.30;1.00;;;;;;10420504;28;20274;-83
2022/11/26 10:59:36;;;;;;;42.10;22.93;;;3.30;1.00;;;;;;10416686;28;20240;-90
2022/11/26 11:05:05;;;;;;;43.87;23.37;;;3.30;1.00;;;;;;10387749;28;20435;-88
2022/11/26 11:10:26;;;;;;;44.70;22.07;;;3.30;1.00;;;;;;10371549;28;20216;-88
2022/11/26 11:15:59;;;;;;;34.47;19.03;;;3.30;1.00;;;;;;10401971;28;20404;-91
2022/11/26 11:21:21;;;;;;;33.47;17.80;;;3.40;1.00;;;;;;10400890;28;20202;-88
2022/11/26 11:26:45;;;;;;;39.50;21.37;;;3.50;1.00;;;;;;10359957;28;20396;-91
2022/11/26 11:32:46;;;;;;;34.37;18.83;;;3.50;1.00;;;;;;10397905;28;20197;-88
2022/11/26 11:38:22;;;;;;;30.77;18.70;;;3.60;1.00;;;;;;10381973;28;20226;-89
2022/11/26 11:43:43;;;;;;;38.93;19.90;;;3.70;1.00;;;;;;10400170;28;20488;-89
2022/11/26 11:49:15;;;;;;;36.27;19.30;;;3.80;1.00;;;;;;10399796;28;20543;-83
2022/11/26 11:54:58;;;;;;;35.50;18.60;;;3.80;1.00;;;;;;10399181;28;20193;-79
2022/11/26 12:00:38;;;;;;;32.90;18.40;;;4.00;1.00;;;;;;10399190;28;20587;-89
2022/11/26 12:06:26;;;;;;;47.83;24.60;;;4.10;1.00;;;;;;10399191;28;20200;-79
2022/11/26 12:18:52;;;;;;;89.50;46.70;;;4.00;1.00;;;;;;10578166;27;20545;-79
2022/11/26 12:24:51;;;;;;;68.80;37.37;;;3.90;1.00;;;;;;10561776;28;20213;-79
2022/11/26 12:30:22;;;;;;;44.73;25.30;;;3.90;1.00;;;;;;10564139;28;20508;-79
2022/11/26 12:35:50;;;;;;;34.40;20.53;;;3.80;1.00;;;;;;10576296;28;20382;-78
2022/11/26 12:41:39;;;;;;;36.28;21.88;;;3.90;1.00;;;;;;10534172;28;20512;-79
2022/11/26 12:47:13;;;;;;;35.93;20.07;;;3.90;1.00;;;;;;10542789;28;20218;-80
2022/11/26 12:52:47;;;;;;;31.37;19.10;;;3.80;1.00;;;;;;10553530;28;20187;-80
2022/11/26 12:58:47;;;;;;;31.37;19.20;;;3.80;1.00;;;;;;10568521;28;20435;-80
2022/11/26 13:04:08;;;;;;;29.67;17.77;;;3.80;1.00;;;;;;10553295;28;20198;-80
2022/11/26 13:09:52;;;;;;;27.67;15.90;;;3.90;1.00;;;;;;10538909;28;20415;-81
2022/11/26 13:15:21;;;;;;;32.20;18.83;;;3.90;1.00;;;;;;10552721;28;20234;-82
2022/11/26 13:21:11;;;;;;;38.63;23.10;;;3.90;1.00;;;;;;10538641;28;20400;-82
2022/11/26 13:26:39;;;;;;;31.90;20.20;;;3.90;1.00;;;;;;10529564;28;20204;-82
2022/11/26 13:32:42;;;;;;;35.33;18.83;;;3.90;1.00;;;;;;10510254;28;20199;-82
2022/11/26 13:38:27;;;;;;;28.03;16.60;;;3.90;1.00;;;;;;10449412;28;20242;-81
2022/11/26 13:44:06;;;;;;;24.80;15.03;;;3.90;1.00;;;;;;10494162;28;20204;-82
2022/11/26 13:49:29;;;;;;;23.43;14.03;;;3.80;1.00;;;;;;10449202;28;20201;-80
2022/11/26 13:54:55;;;;;;;27.13;15.87;;;3.80;1.00;;;;;;10465701;28;20233;-80
2022/11/26 14:00:33;;;;;;;23.60;14.13;;;3.70;1.00;;;;;;10479285;28;20229;-80
2022/11/26 14:05:57;;;;;;;25.93;14.90;;;3.70;1.00;;;;;;10465555;28;20203;-80
2022/11/26 14:11:39;;;;;;;22.17;13.10;;;3.70;1.00;;;;;;10465875;28;20227;-80
2022/11/26 14:17:00;;;;;;;27.37;14.03;;;3.70;1.00;;;;;;10522204;28;20242;-80
2022/11/26 14:22:21;;;;;;;20.53;12.43;;;3.70;9.80;;;;;;10508531;28;20381;-80
2022/11/26 14:27:54;;;;;;;22.17;13.93;;;3.70;14.60;;;;;;10522485;28;20196;-80
2022/11/26 14:33:22;;;;;;;21.87;12.00;;;3.70;6.00;;;;;;10522145;28;20403;-81
2022/11/26 14:38:43;;;;;;;21.33;13.67;;;3.70;29.40;;;;;;10506794;28;20215;-82
2022/11/26 14:44:12;;;;;;;20.83;12.67;;;3.70;24.00;;;;;;10551008;28;20195;-81
2022/11/26 14:49:38;;;;;;;25.17;14.73;;;3.70;25.70;;;;;;10504241;28;20239;-81
2022/11/26 14:55:22;;;;;;;24.77;14.37;;;3.70;13.00;;;;;;10506984;28;20448;-81
2022/11/26 15:00:43;;;;;;;23.80;15.40;;;3.80;11.90;;;;;;10506777;28;20225;-82
2022/11/26 15:06:05;;;;;;;24.80;15.03;;;3.70;7.60;;;;;;10506704;28;20282;-82
2022/11/26 15:11:26;;;;;;;27.27;16.17;;;3.70;17.50;;;;;;10520722;28;20390;-81
2022/11/26 15:16:57;;;;;;;31.20;20.67;;;3.70;8.30;;;;;;10519824;28;20573;-81
2022/11/26 15:22:38;;;;;;;31.53;20.83;;;3.70;14.70;;;;;;10505806;28;20201;-82
2022/11/26 15:28:13;;;;;;;34.90;21.07;;;3.60;13.70;;;;;;10505658;28;20199;-81
2022/11/26 15:33:37;;;;;;;31.47;19.43;;;3.50;31.20;;;;;;10520108;28;20525;-81
2022/11/26 15:39:05;;;;;;;25.00;16.37;;;3.50;47.40;;;;;;10491149;28;20227;-81
2022/11/26 15:44:28;;;;;;;26.83;17.20;;;3.40;44.70;;;;;;10532215;28;20195;-81
2022/11/26 15:49:53;;;;;;;28.07;17.77;;;3.40;48.10;;;;;;10529104;28;20191;-81
2022/11/26 15:55:25;;;;;;;27.00;16.90;;;3.40;49.20;;;;;;10518915;28;20459;-81
2022/11/26 16:00:53;;;;;;;26.17;16.87;;;3.40;43.70;;;;;;10504684;28;20277;-81
2022/11/26 16:06:27;;;;;;;23.80;14.87;;;3.40;30.20;;;;;;10490588;28;20302;-81
2022/11/26 16:11:57;;;;;;;21.77;14.47;;;3.40;31.90;;;;;;10518862;28;20198;-81
2022/11/26 16:17:20;;;;;;;23.30;15.90;;;3.40;25.50;;;;;;10503493;28;20244;-81
2022/11/26 16:22:45;;;;;;;25.70;15.23;;;3.40;27.00;;;;;;10504083;28;20203;-81
2022/11/26 16:28:09;;;;;;;25.37;15.37;;;3.40;23.10;;;;;;10504305;28;20401;-81
2022/11/26 16:33:30;;;;;;;24.80;15.73;;;3.40;7.90;;;;;;10504279;28;20266;-82
2022/11/26 16:38:52;;;;;;;28.27;16.47;;;3.50;18.40;;;;;;10503730;28;20294;-82
2022/11/26 16:44:13;;;;;;;25.77;15.97;;;3.50;22.60;;;;;;10529362;28;20190;-81
2022/11/26 16:49:34;;;;;;;26.03;15.53;;;3.50;44.40;;;;;;10530173;28;20518;-82
2022/11/26 16:54:55;;;;;;;42.07;25.10;;;3.40;45.00;;;;;;10517921;28;20214;-80
2022/11/26 17:00:19;;;;;;;35.60;20.70;;;3.40;64.90;;;;;;10489868;28;20238;-80
2022/11/26 17:05:41;;;;;;;32.10;19.97;;;3.40;62.60;;;;;;10511699;28;20191;-80
2022/11/26 17:11:02;;;;;;;36.97;21.90;;;3.40;69.90;;;;;;10525611;28;20196;-80
2022/11/26 17:16:24;;;;;;;31.30;21.90;;;3.40;84.40;;;;;;10496559;28;20626;-79
2022/11/26 17:21:46;;;;;;;37.67;25.17;;;3.40;91.20;;;;;;10510833;28;20434;-82
2022/11/26 17:27:15;;;;;;;53.17;31.83;;;3.50;96.70;;;;;;10510905;28;20210;-80
2022/11/26 17:32:36;;;;;;;44.17;25.17;;;3.50;95.90;;;;;;10524775;28;20223;-80
2022/11/26 17:37:57;;;;;;;38.77;23.33;;;3.50;81.30;;;;;;10509958;28;20230;-80
2022/11/26 17:43:18;;;;;;;38.03;24.90;;;3.50;90.50;;;;;;10542997;28;20195;-80
2022/11/26 17:48:39;;;;;;;45.60;30.03;;;3.50;77.30;;;;;;10514257;28;20195;-79
2022/11/26 17:54:00;;;;;;;50.53;27.77;;;3.50;83.10;;;;;;10509509;28;20202;-79
2022/11/26 17:59:21;;;;;;;49.33;27.83;;;3.50;90.50;;;;;;10495625;28;20199;-81
2022/11/26 18:04:43;;;;;;;48.20;29.27;;;3.50;92.30;;;;;;10523244;28;20367;-80
2022/11/26 18:10:09;;;;;;;47.57;27.77;;;3.50;97.30;;;;;;10508916;28;20195;-80
2022/11/26 18:15:30;;;;;;;50.43;25.67;;;3.50;94.00;;;;;;10508128;28;20240;-80
2022/11/26 18:20:52;;;;;;;48.97;28.13;;;3.50;99.90;;;;;;10523656;28;20555;-80
2022/11/26 18:26:16;;;;;;;45.57;27.57;;;3.50;99.90;;;;;;10523614;28;20196;-80
2022/11/26 18:31:38;;;;;;;63.80;34.40;;;3.40;96.50;;;;;;10508183;28;20220;-81
2022/11/26 18:36:59;;;;;;;55.50;32.27;;;3.50;99.90;;;;;;10507667;28;20234;-81
2022/11/26 18:42:21;;;;;;;61.67;31.10;;;3.50;99.90;;;;;;10517373;28;20194;-81
2022/11/26 18:47:55;;;;;;;46.77;26.53;;;3.50;99.90;;;;;;10531865;28;20429;-82
2022/11/26 18:53:16;;;;;;;51.63;27.37;;;3.50;99.90;;;;;;10507566;28;20188;-81
2022/11/26 18:58:38;;;;;;;60.17;29.87;;;3.50;99.90;;;;;;10521180;28;20463;-80
2022/11/26 19:03:59;;;;;;;40.37;24.50;;;3.50;99.90;;;;;;10492594;28;20195;-80
2022/11/26 19:09:20;;;;;;;37.67;21.13;;;3.50;99.90;;;;;;10506750;28;20235;-81
2022/11/26 19:14:41;;;;;;;30.30;17.10;;;3.50;99.90;;;;;;10505929;28;20238;-80
2022/11/26 19:20:04;;;;;;;24.47;14.60;;;3.50;99.90;;;;;;10519880;28;20305;-81
2022/11/26 19:25:25;;;;;;;27.03;15.10;;;3.40;99.90;;;;;;10520574;28;20184;-80
2022/11/26 19:30:59;;;;;;;31.23;17.50;;;3.40;99.90;;;;;;10519712;28;20196;-78
2022/11/26 19:36:20;;;;;;;25.37;15.27;;;3.40;99.90;;;;;;10505252;28;20305;-79
2022/11/26 19:41:42;;;;;;;25.53;16.57;;;3.40;99.90;;;;;;10509071;28;20248;-81
2022/11/26 19:47:03;;;;;;;25.60;15.47;;;3.40;99.90;;;;;;10537226;28;20192;-79
2022/11/26 19:52:25;;;;;;;22.80;15.33;;;3.40;99.90;;;;;;10478444;28;20197;-78
2022/11/26 19:57:46;;;;;;;29.57;17.00;;;3.40;99.90;;;;;;10463464;28;20244;-79
2022/11/26 20:03:07;;;;;;;41.50;24.70;;;3.20;99.90;;;;;;10463481;28;20394;-79
2022/11/26 20:08:28;;;;;;;42.03;24.67;;;3.20;99.90;;;;;;10505661;28;20375;-78
2022/11/26 20:13:50;;;;;;;39.20;23.90;;;3.10;99.90;;;;;;10462748;28;20200;-81
2022/11/26 20:19:11;;;;;;;36.50;22.00;;;3.20;99.90;;;;;;10512406;28;20224;-80
2022/11/26 20:24:33;;;;;;;37.90;22.50;;;3.20;99.90;;;;;;10519687;28;20194;-81
2022/11/26 20:29:54;;;;;;;41.37;26.47;;;3.20;99.90;;;;;;10518437;28;20236;-80
2022/11/26 20:35:15;;;;;;;49.27;30.13;;;3.10;99.90;;;;;;10518619;28;20290;-80
2022/11/26 20:40:43;;;;;;;58.37;31.00;;;3.20;99.90;;;;;;10526486;28;20390;-80
2022/11/26 20:46:06;;;;;;;62.07;33.30;;;3.10;99.90;;;;;;10537311;28;20203;-82
2022/11/26 20:51:27;;;;;;;66.10;34.53;;;3.10;99.90;;;;;;10497973;28;20196;-81
2022/11/26 20:56:48;;;;;;;61.20;35.17;;;3.10;99.90;;;;;;10497614;28;20251;-80
2022/11/26 21:02:10;;;;;;;55.37;33.13;;;3.10;99.90;;;;;;10525657;28;20194;-81
2022/11/26 21:07:32;;;;;;;57.90;32.93;;;3.20;99.90;;;;;;10511358;28;20519;-80
2022/11/26 21:12:54;;;;;;;61.17;33.10;;;3.20;99.90;;;;;;10525016;28;20307;-81
2022/11/26 21:18:15;;;;;;;45.77;26.40;;;3.30;99.90;;;;;;10510730;28;20243;-80
2022/11/26 21:23:38;;;;;;;37.77;22.07;;;3.30;99.90;;;;;;10497028;28;20557;-81
2022/11/26 21:29:00;;;;;;;33.83;20.27;;;3.30;99.90;;;;;;10496547;28;20200;-80
2022/11/26 21:34:21;;;;;;;43.50;22.50;;;3.30;99.90;;;;;;10524781;28;20192;-80
2022/11/26 21:39:43;;;;;;;37.20;21.00;;;3.20;99.90;;;;;;10524346;28;20236;-80
2022/11/26 21:45:04;;;;;;;32.50;20.40;;;3.20;99.90;;;;;;10542556;28;20191;-80
2022/11/26 21:50:26;;;;;;;38.93;21.03;;;3.20;99.90;;;;;;10527625;28;20223;-80
2022/11/26 21:55:47;;;;;;;53.53;28.07;;;3.20;99.90;;;;;;10509608;28;20223;-80
2022/11/26 22:01:17;;;;;;;51.43;27.80;;;3.20;99.90;;;;;;10523580;28;20252;-80
2022/11/26 22:06:38;;;;;;;51.43;28.77;;;3.20;99.90;;;;;;10509177;28;20220;-80
2022/11/26 22:11:59;;;;;;;59.63;30.30;;;3.20;99.90;;;;;;10508931;28;20192;-80
2022/11/26 22:17:20;;;;;;;51.00;28.00;;;3.20;99.90;;;;;;10508398;28;20623;-80
2022/11/26 22:22:41;;;;;;;55.83;30.53;;;3.20;99.90;;;;;;10522922;28;20543;-81
2022/11/26 22:28:03;;;;;;;59.33;32.17;;;3.20;99.90;;;;;;10508325;28;20225;-81
2022/11/26 22:33:24;;;;;;;53.50;29.13;;;3.20;99.90;;;;;;10522445;28;20191;-80
2022/11/26 22:38:46;;;;;;;57.80;30.60;;;3.20;99.90;;;;;;10507655;28;20605;-80
2022/11/26 22:44:08;;;;;;;62.20;30.70;;;3.20;99.90;;;;;;10551453;28;20203;-80
2022/11/26 22:49:29;;;;;;;94.50;43.47;;;3.20;99.90;;;;;;10533716;28;20237;-80
2022/11/26 22:54:50;;;;;;;85.77;37.53;;;3.10;99.90;;;;;;10521055;28;20199;-80
2022/11/26 23:00:33;;;;;;;59.37;32.67;;;3.20;99.90;;;;;;10506522;28;20205;-80
2022/11/26 23:05:54;;;;;;;53.83;30.23;;;3.20;99.90;;;;;;10521998;28;20188;-80
2022/11/26 23:11:24;;;;;;;49.07;27.80;;;3.00;99.90;;;;;;10521634;28;20483;-80
2022/11/26 23:16:45;;;;;;;42.97;26.50;;;3.10;99.90;;;;;;10521074;28;20310;-80
2022/11/26 23:22:06;;;;;;;46.77;24.83;;;3.10;99.90;;;;;;10506209;28;20218;-80
2022/11/26 23:27:27;;;;;;;35.40;20.53;;;3.20;99.90;;;;;;10505963;28;20203;-79
2022/11/26 23:32:48;;;;;;;32.13;18.43;;;3.20;99.90;;;;;;10521111;28;20188;-80
2022/11/26 23:38:09;;;;;;;29.70;17.70;;;3.20;99.90;;;;;;10519127;28;20223;-80
2022/11/26 23:43:32;;;;;;;29.83;16.93;;;3.30;99.90;;;;;;10539016;28;20236;-80
2022/11/26 23:48:54;;;;;;;30.83;17.50;;;3.30;99.90;;;;;;10521839;28;20200;-80
2022/11/26 23:54:15;;;;;;;39.70;20.57;;;3.20;99.90;;;;;;10519418;28;20238;-81
2022/11/26 23:59:36;;;;;;;41.77;22.87;;;3.30;99.90;;;;;;10519158;28;20298;-82
